Terminal Aerodrome Forecast
Issued by NWS Twin Cities, MN

Home | Current Version | Previous Version | Text Only | Print | Product List | Glossary Off
Versions: 1 2 3 4 5 6 7 8 9 10 11 12 13 14 15 16 17 18 19 20 21 22 23 24 25 26 27 28 29 30

000
FTUS43 KMPX 220256 AAA
TAFMSP
TAF AMD
KMSP 220256Z 2203/2306 01011KT P6SM SKC
     FM220600 05006KT P6SM SKC
     FM221400 11007KT P6SM SCT250
     FM222200 14010KT P6SM BKN120=

USA.gov is the U.S. government's official web portal to all federal, state and local government web resources and services.